ΕΜΥ, Εθνική Μετεωρολογική Υπηρεσία - Δελτία Καιρού, Προγνώσεις

ΑΕΡΟΝΑΥΤΙΛΙΑ

GREEK AIRPORTS CODES

LGMG 221500Z 01005G15KT 9999 FEW020 25/14 Q1017=

EUROPEAN AIRPORTS CODES

TAF LGMG 230400Z 2306/2315 34012KT 9999 FEW018 TEMPO 2306/2315 36015G25KT=